THY7PY LTFM-LTAI
Flight info
| Callsign | THY7PY |
|---|---|
| Flight time | 1h 7m |
| Altitude | 35000 |
| Route | RATVU1D/35L RATVU UT35 BABSA |
| Aircraft | B738/M-SDE2E3FGHIRWXY/LB1 |
Departure
| Time | 2026-05-05 15:58 |
|---|---|
| Airport | İstanbul Airport (LTFM) |
Arrival
| Time | 2026-05-05 17:05 |
|---|---|
| Airport | Antalya International Airport (LTAI) |
| Time | Latitude | Longitude | Altitude | Speed | Heading |
|---|---|---|---|---|---|
| 2026-05-05 15:28 | 41.26761 | 28.73531 | 334 ft | 0 kts | 179° |
| 2026-05-05 15:41 | 41.26768 | 28.73531 | 334 ft | 2 kts | 190° |
| 2026-05-05 15:42 | 41.26783 | 28.73535 | 334 ft | 2 kts | 188° |
| 2026-05-05 15:42 | 41.26797 | 28.73538 | 334 ft | 2 kts | 188° |
| 2026-05-05 15:42 | 41.26806 | 28.73540 | 334 ft | 1 kts | 180° |
| 2026-05-05 15:42 | 41.26814 | 28.73535 | 334 ft | 1 kts | 120° |
| 2026-05-05 15:43 | 41.26815 | 28.73528 | 334 ft | 0 kts | 85° |
| 2026-05-05 15:43 | 41.26815 | 28.73519 | 334 ft | 0 kts | 89° |
| 2026-05-05 15:47 | 41.26817 | 28.73554 | 334 ft | 6 kts | 82° |
| 2026-05-05 15:47 | 41.26830 | 28.73613 | 334 ft | 7 kts | 68° |
| 2026-05-05 15:48 | 41.26852 | 28.73683 | 334 ft | 9 kts | 70° |
| 2026-05-05 15:48 | 41.26862 | 28.73754 | 334 ft | 6 kts | 84° |
| 2026-05-05 15:48 | 41.26867 | 28.73811 | 334 ft | 5 kts | 82° |
| 2026-05-05 15:48 | 41.26889 | 28.73853 | 334 ft | 6 kts | 30° |
| 2026-05-05 15:49 | 41.26931 | 28.73858 | 334 ft | 5 kts | 358° |
| 2026-05-05 15:49 | 41.26967 | 28.73856 | 334 ft | 4 kts | 358° |
| 2026-05-05 15:49 | 41.27004 | 28.73855 | 334 ft | 7 kts | 358° |
| 2026-05-05 15:49 | 41.27057 | 28.73852 | 334 ft | 6 kts | 358° |
| 2026-05-05 15:50 | 41.27071 | 28.73852 | 334 ft | 0 kts | 358° |
| 2026-05-05 15:50 | 41.27072 | 28.73851 | 334 ft | 0 kts | 342° |
| 2026-05-05 15:50 | 41.27074 | 28.73847 | 334 ft | 0 kts | 289° |
| 2026-05-05 15:50 | 41.27068 | 28.73831 | 334 ft | 4 kts | 238° |
| 2026-05-05 15:51 | 41.27045 | 28.73780 | 334 ft | 8 kts | 248° |
| 2026-05-05 15:51 | 41.27038 | 28.73699 | 334 ft | 9 kts | 268° |
| 2026-05-05 15:51 | 41.27036 | 28.73608 | 334 ft | 11 kts | 269° |
| 2026-05-05 15:51 | 41.27035 | 28.73505 | 334 ft | 7 kts | 269° |
| 2026-05-05 15:52 | 41.27034 | 28.73435 | 334 ft | 8 kts | 269° |
| 2026-05-05 15:52 | 41.27034 | 28.73348 | 334 ft | 8 kts | 270° |
| 2026-05-05 15:52 | 41.27034 | 28.73269 | 334 ft | 10 kts | 270° |
| 2026-05-05 15:52 | 41.27034 | 28.73192 | 334 ft | 5 kts | 270° |
| 2026-05-05 15:53 | 41.27034 | 28.73134 | 334 ft | 6 kts | 270° |
| 2026-05-05 15:53 | 41.27034 | 28.73078 | 334 ft | 3 kts | 270° |
| 2026-05-05 15:53 | 41.27033 | 28.73045 | 334 ft | 3 kts | 265° |
| 2026-05-05 15:53 | 41.27014 | 28.73005 | 334 ft | 5 kts | 216° |
| 2026-05-05 15:54 | 41.26977 | 28.72990 | 334 ft | 5 kts | 180° |
| 2026-05-05 15:54 | 41.26940 | 28.72991 | 334 ft | 5 kts | 179° |
| 2026-05-05 15:54 | 41.26902 | 28.72992 | 334 ft | 6 kts | 178° |
| 2026-05-05 15:54 | 41.26846 | 28.72995 | 334 ft | 10 kts | 178° |
| 2026-05-05 15:55 | 41.26781 | 28.72998 | 334 ft | 5 kts | 178° |
| 2026-05-05 15:55 | 41.26754 | 28.73000 | 334 ft | 1 kts | 178° |
| 2026-05-05 15:55 | 41.26732 | 28.72993 | 334 ft | 5 kts | 206° |
| 2026-05-05 15:55 | 41.26707 | 28.72936 | 334 ft | 8 kts | 267° |
| 2026-05-05 15:56 | 41.26706 | 28.72861 | 334 ft | 9 kts | 269° |
| 2026-05-05 15:56 | 41.26705 | 28.72753 | 334 ft | 12 kts | 270° |
| 2026-05-05 15:56 | 41.26704 | 28.72641 | 334 ft | 11 kts | 269° |
| 2026-05-05 15:56 | 41.26704 | 28.72555 | 334 ft | 5 kts | 270° |
| 2026-05-05 15:57 | 41.26716 | 28.72518 | 334 ft | 5 kts | 327° |
| 2026-05-05 15:57 | 41.26763 | 28.72512 | 334 ft | 8 kts | 360° |
| 2026-05-05 15:57 | 41.26971 | 28.72509 | 334 ft | 64 kts | 360° |
| 2026-05-05 15:57 | 41.27646 | 28.72498 | 334 ft | 127 kts | 359° |
| 2026-05-05 15:58 | 41.28716 | 28.72475 | 343 ft | 177 kts | 0° |
| 2026-05-05 15:58 | 41.29960 | 28.72473 | 922 ft | 182 kts | 0° |
| 2026-05-05 15:58 | 41.31183 | 28.72463 | 1771 ft | 176 kts | 1° |
| 2026-05-05 15:58 | 41.32492 | 28.72448 | 2049 ft | 198 kts | 1° |
| 2026-05-05 15:59 | 41.33944 | 28.72473 | 2282 ft | 222 kts | 2° |
| 2026-05-05 15:59 | 41.35552 | 28.72486 | 2748 ft | 238 kts | 359° |
| 2026-05-05 15:59 | 41.37199 | 28.71890 | 3208 ft | 258 kts | 329° |
| 2026-05-05 15:59 | 41.38378 | 28.70102 | 3918 ft | 267 kts | 294° |
| 2026-05-05 16:00 | 41.38658 | 28.67655 | 4610 ft | 275 kts | 265° |
| 2026-05-05 16:00 | 41.38412 | 28.65179 | 5429 ft | 275 kts | 263° |
| 2026-05-05 16:00 | 41.38212 | 28.62592 | 6011 ft | 285 kts | 267° |
| 2026-05-05 16:00 | 41.38144 | 28.59990 | 6788 ft | 286 kts | 268° |
| 2026-05-05 16:01 | 41.37814 | 28.57385 | 7473 ft | 291 kts | 247° |
| 2026-05-05 16:01 | 41.36600 | 28.55238 | 8152 ft | 293 kts | 215° |
| 2026-05-05 16:01 | 41.34758 | 28.54262 | 8914 ft | 286 kts | 181° |
| 2026-05-05 16:01 | 41.32828 | 28.54480 | 9666 ft | 283 kts | 167° |
| 2026-05-05 16:02 | 41.30870 | 28.54887 | 10141 ft | 287 kts | 170° |
| 2026-05-05 16:02 | 41.28850 | 28.55120 | 10248 ft | 303 kts | 174° |
| 2026-05-05 16:02 | 41.26685 | 28.55393 | 10345 ft | 322 kts | 163° |
| 2026-05-05 16:02 | 41.24588 | 28.56528 | 10567 ft | 335 kts | 150° |
| 2026-05-05 16:03 | 41.22525 | 28.58011 | 11218 ft | 338 kts | 149° |
| 2026-05-05 16:03 | 41.20428 | 28.59450 | 11866 ft | 342 kts | 151° |
| 2026-05-05 16:03 | 41.18296 | 28.60834 | 12575 ft | 344 kts | 152° |
| 2026-05-05 16:03 | 41.16156 | 28.62186 | 13247 ft | 346 kts | 153° |
| 2026-05-05 16:04 | 41.14149 | 28.63438 | 13882 ft | 348 kts | 153° |
| 2026-05-05 16:04 | 41.11844 | 28.64865 | 14587 ft | 351 kts | 153° |
| 2026-05-05 16:04 | 41.09657 | 28.66221 | 15307 ft | 352 kts | 154° |
| 2026-05-05 16:04 | 41.07435 | 28.67604 | 15947 ft | 355 kts | 154° |
| 2026-05-05 16:05 | 41.05197 | 28.68993 | 16557 ft | 359 kts | 155° |
| 2026-05-05 16:05 | 41.02946 | 28.70381 | 17112 ft | 363 kts | 156° |
| 2026-05-05 16:05 | 41.00642 | 28.71794 | 17634 ft | 368 kts | 156° |
| 2026-05-05 16:05 | 40.98307 | 28.73227 | 18136 ft | 374 kts | 156° |
| 2026-05-05 16:06 | 40.95960 | 28.74706 | 18619 ft | 379 kts | 156° |
| 2026-05-05 16:06 | 40.93589 | 28.76233 | 19173 ft | 382 kts | 156° |
| 2026-05-05 16:06 | 40.91185 | 28.77803 | 19724 ft | 386 kts | 155° |
| 2026-05-05 16:06 | 40.88813 | 28.79367 | 20239 ft | 389 kts | 155° |
| 2026-05-05 16:07 | 40.86369 | 28.80979 | 20779 ft | 392 kts | 155° |
| 2026-05-05 16:07 | 40.83946 | 28.82572 | 21308 ft | 394 kts | 156° |
| 2026-05-05 16:07 | 40.81480 | 28.84182 | 21826 ft | 396 kts | 156° |
| 2026-05-05 16:07 | 40.79028 | 28.85765 | 22329 ft | 398 kts | 156° |
| 2026-05-05 16:08 | 40.76571 | 28.87326 | 22812 ft | 400 kts | 157° |
| 2026-05-05 16:08 | 40.74149 | 28.88836 | 23280 ft | 402 kts | 157° |
| 2026-05-05 16:08 | 40.71553 | 28.90420 | 23758 ft | 404 kts | 158° |
| 2026-05-05 16:08 | 40.68996 | 28.91948 | 24213 ft | 406 kts | 158° |
| 2026-05-05 16:09 | 40.66425 | 28.93450 | 24659 ft | 408 kts | 159° |
| 2026-05-05 16:09 | 40.63799 | 28.94957 | 25082 ft | 411 kts | 159° |
| 2026-05-05 16:09 | 40.61176 | 28.96427 | 25516 ft | 412 kts | 160° |
| 2026-05-05 16:09 | 40.58526 | 28.97899 | 25935 ft | 415 kts | 160° |
| 2026-05-05 16:10 | 40.55908 | 28.99348 | 26329 ft | 417 kts | 160° |
| 2026-05-05 16:10 | 40.53222 | 29.00824 | 26716 ft | 419 kts | 160° |
| 2026-05-05 16:10 | 40.50542 | 29.02309 | 27089 ft | 421 kts | 160° |
| 2026-05-05 16:10 | 40.47832 | 29.03839 | 27473 ft | 423 kts | 159° |
| 2026-05-05 16:11 | 40.45156 | 29.05385 | 27807 ft | 426 kts | 159° |
| 2026-05-05 16:12 | 40.35025 | 29.11456 | 29014 ft | 436 kts | 159° |
| 2026-05-05 16:12 | 40.29486 | 29.14775 | 29607 ft | 441 kts | 159° |
| 2026-05-05 16:13 | 40.21108 | 29.19780 | 30444 ft | 448 kts | 159° |
| 2026-05-05 16:13 | 40.18317 | 29.21444 | 30755 ft | 449 kts | 159° |
| 2026-05-05 16:13 | 40.15474 | 29.23138 | 31116 ft | 449 kts | 159° |
| 2026-05-05 16:14 | 40.09815 | 29.26505 | 31804 ft | 449 kts | 159° |
| 2026-05-05 16:14 | 40.04177 | 29.29851 | 32490 ft | 448 kts | 159° |
| 2026-05-05 16:15 | 39.98512 | 29.33206 | 33145 ft | 448 kts | 159° |
| 2026-05-05 16:15 | 39.92858 | 29.36549 | 33770 ft | 447 kts | 160° |
| 2026-05-05 16:16 | 39.87252 | 29.39770 | 34370 ft | 446 kts | 161° |
| 2026-05-05 16:16 | 39.81637 | 29.42842 | 34994 ft | 444 kts | 161° |
| 2026-05-05 16:17 | 39.73057 | 29.47532 | 35071 ft | 446 kts | 161° |
| 2026-05-05 16:18 | 39.64648 | 29.52135 | 35077 ft | 440 kts | 161° |
| 2026-05-05 16:19 | 39.56106 | 29.56465 | 35073 ft | 442 kts | 163° |
| 2026-05-05 16:19 | 39.46600 | 29.61183 | 35074 ft | 440 kts | 163° |
| 2026-05-05 16:20 | 39.36693 | 29.66101 | 35074 ft | 440 kts | 163° |
| 2026-05-05 16:22 | 39.22051 | 29.73351 | 35074 ft | 441 kts | 163° |
| 2026-05-05 16:23 | 39.10785 | 29.78910 | 35074 ft | 440 kts | 163° |
| 2026-05-05 16:23 | 39.02227 | 29.83123 | 35074 ft | 440 kts | 163° |
| 2026-05-05 16:24 | 38.96549 | 29.85910 | 35074 ft | 440 kts | 163° |
| 2026-05-05 16:25 | 38.88043 | 29.90071 | 35074 ft | 438 kts | 163° |
| 2026-05-05 16:25 | 38.79511 | 29.94134 | 35074 ft | 438 kts | 163° |
| 2026-05-05 16:26 | 38.68167 | 29.99512 | 35074 ft | 438 kts | 163° |
| 2026-05-05 16:27 | 38.62494 | 30.02197 | 35073 ft | 438 kts | 163° |
| 2026-05-05 16:27 | 38.56812 | 30.04882 | 35070 ft | 438 kts | 163° |
| 2026-05-05 16:28 | 38.51109 | 30.07572 | 35052 ft | 438 kts | 163° |
| 2026-05-05 16:28 | 38.45425 | 30.10249 | 35047 ft | 438 kts | 163° |
| 2026-05-05 16:29 | 38.39718 | 30.12932 | 35047 ft | 438 kts | 163° |
| 2026-05-05 16:29 | 38.34002 | 30.15615 | 35009 ft | 437 kts | 164° |
| 2026-05-05 16:30 | 38.31185 | 30.16924 | 34425 ft | 437 kts | 164° |
| 2026-05-05 16:30 | 38.28322 | 30.18239 | 33679 ft | 437 kts | 164° |
| 2026-05-05 16:30 | 38.25496 | 30.19534 | 32966 ft | 436 kts | 164° |
| 2026-05-05 16:30 | 38.22656 | 30.20834 | 32142 ft | 438 kts | 164° |
| 2026-05-05 16:31 | 38.19786 | 30.22150 | 31327 ft | 439 kts | 163° |
| 2026-05-05 16:31 | 38.16943 | 30.23452 | 30476 ft | 441 kts | 163° |
| 2026-05-05 16:31 | 38.14099 | 30.24755 | 29614 ft | 442 kts | 163° |
| 2026-05-05 16:31 | 38.11215 | 30.26076 | 28841 ft | 440 kts | 163° |
| 2026-05-05 16:32 | 38.08421 | 30.27358 | 28428 ft | 429 kts | 163° |
| 2026-05-05 16:32 | 38.05661 | 30.28629 | 28079 ft | 410 kts | 162° |
| 2026-05-05 16:32 | 38.03102 | 30.29974 | 27849 ft | 389 kts | 159° |
| 2026-05-05 16:32 | 38.00753 | 30.31525 | 27558 ft | 374 kts | 151° |
| 2026-05-05 16:33 | 37.98671 | 30.33383 | 27033 ft | 368 kts | 147° |
| 2026-05-05 16:33 | 37.96670 | 30.35350 | 26451 ft | 363 kts | 146° |
| 2026-05-05 16:33 | 37.94693 | 30.37315 | 25749 ft | 359 kts | 146° |
| 2026-05-05 16:33 | 37.92764 | 30.39230 | 25142 ft | 353 kts | 146° |
| 2026-05-05 16:34 | 37.90842 | 30.41012 | 25037 ft | 340 kts | 151° |
| 2026-05-05 16:34 | 37.88774 | 30.42430 | 25057 ft | 346 kts | 161° |
| 2026-05-05 16:34 | 37.86492 | 30.43295 | 25043 ft | 347 kts | 173° |
| 2026-05-05 16:34 | 37.84096 | 30.43609 | 25044 ft | 343 kts | 181° |
| 2026-05-05 16:35 | 37.81770 | 30.43406 | 25042 ft | 338 kts | 192° |
| 2026-05-05 16:35 | 37.79492 | 30.42611 | 25048 ft | 336 kts | 202° |
| 2026-05-05 16:35 | 37.77404 | 30.41355 | 25047 ft | 336 kts | 211° |
| 2026-05-05 16:35 | 37.75436 | 30.39771 | 25047 ft | 337 kts | 213° |
| 2026-05-05 16:36 | 37.73510 | 30.38124 | 25046 ft | 337 kts | 214° |
| 2026-05-05 16:36 | 37.71557 | 30.36449 | 25046 ft | 337 kts | 214° |
| 2026-05-05 16:36 | 37.69640 | 30.34808 | 25046 ft | 336 kts | 214° |
| 2026-05-05 16:36 | 37.67703 | 30.33153 | 25047 ft | 336 kts | 214° |
| 2026-05-05 16:37 | 37.65766 | 30.31503 | 25047 ft | 336 kts | 214° |
| 2026-05-05 16:37 | 37.63836 | 30.29860 | 25046 ft | 336 kts | 213° |
| 2026-05-05 16:37 | 37.61821 | 30.28356 | 25044 ft | 337 kts | 206° |
| 2026-05-05 16:37 | 37.59630 | 30.27339 | 25045 ft | 338 kts | 194° |
| 2026-05-05 16:38 | 37.57298 | 30.26863 | 25053 ft | 339 kts | 188° |
| 2026-05-05 16:38 | 37.54975 | 30.26551 | 25047 ft | 340 kts | 187° |
| 2026-05-05 16:38 | 37.52614 | 30.26246 | 25046 ft | 340 kts | 188° |
| 2026-05-05 16:38 | 37.50299 | 30.25942 | 25046 ft | 339 kts | 188° |
| 2026-05-05 16:39 | 37.47996 | 30.25634 | 25047 ft | 339 kts | 188° |
| 2026-05-05 16:39 | 37.45636 | 30.25315 | 25047 ft | 339 kts | 188° |
| 2026-05-05 16:39 | 37.43301 | 30.24998 | 25047 ft | 339 kts | 188° |
| 2026-05-05 16:39 | 37.40944 | 30.24677 | 25046 ft | 340 kts | 188° |
| 2026-05-05 16:40 | 37.38620 | 30.24358 | 25047 ft | 340 kts | 188° |
| 2026-05-05 16:40 | 37.36279 | 30.24038 | 25046 ft | 340 kts | 188° |
| 2026-05-05 16:40 | 37.33930 | 30.23715 | 25047 ft | 339 kts | 188° |
| 2026-05-05 16:40 | 37.31583 | 30.23393 | 25047 ft | 339 kts | 188° |
| 2026-05-05 16:41 | 37.29256 | 30.23075 | 25046 ft | 339 kts | 188° |
| 2026-05-05 16:41 | 37.26900 | 30.22752 | 25046 ft | 339 kts | 188° |
| 2026-05-05 16:41 | 37.24591 | 30.22436 | 25036 ft | 340 kts | 187° |
| 2026-05-05 16:41 | 37.22208 | 30.22296 | 25023 ft | 342 kts | 180° |
| 2026-05-05 16:42 | 37.19877 | 30.22634 | 25011 ft | 345 kts | 169° |
| 2026-05-05 16:42 | 37.17576 | 30.23605 | 25004 ft | 349 kts | 159° |
| 2026-05-05 16:42 | 37.15449 | 30.25074 | 24988 ft | 353 kts | 149° |
| 2026-05-05 16:42 | 37.13583 | 30.27022 | 24976 ft | 358 kts | 137° |
| 2026-05-05 16:43 | 37.12003 | 30.29498 | 24970 ft | 363 kts | 127° |
| 2026-05-05 16:43 | 37.10833 | 30.32295 | 24961 ft | 365 kts | 115° |
| 2026-05-05 16:43 | 37.10141 | 30.35265 | 24960 ft | 353 kts | 104° |
| 2026-05-05 16:43 | 37.09845 | 30.38259 | 24964 ft | 342 kts | 94° |
| 2026-05-05 16:44 | 37.10156 | 30.41173 | 24968 ft | 340 kts | 73° |
| 2026-05-05 16:44 | 37.11177 | 30.43884 | 24988 ft | 348 kts | 57° |
| 2026-05-05 16:44 | 37.12798 | 30.46114 | 24956 ft | 354 kts | 36° |
| 2026-05-05 16:44 | 37.14904 | 30.47528 | 24818 ft | 349 kts | 16° |
| 2026-05-05 16:45 | 37.17255 | 30.48098 | 24407 ft | 345 kts | 358° |
| 2026-05-05 16:45 | 37.19620 | 30.47970 | 24141 ft | 339 kts | 357° |
| 2026-05-05 16:45 | 37.21959 | 30.48376 | 23684 ft | 344 kts | 17° |
| 2026-05-05 16:45 | 37.24128 | 30.49491 | 23412 ft | 338 kts | 24° |
| 2026-05-05 16:46 | 37.26263 | 30.50723 | 22778 ft | 339 kts | 23° |
| 2026-05-05 16:46 | 37.28392 | 30.51911 | 22327 ft | 334 kts | 23° |
| 2026-05-05 16:46 | 37.30389 | 30.53344 | 21770 ft | 333 kts | 41° |
| 2026-05-05 16:46 | 37.31874 | 30.55511 | 21298 ft | 324 kts | 62° |
| 2026-05-05 16:47 | 37.32763 | 30.58019 | 20777 ft | 318 kts | 80° |
| 2026-05-05 16:47 | 37.32885 | 30.60744 | 20211 ft | 307 kts | 105° |
| 2026-05-05 16:47 | 37.32171 | 30.63163 | 19749 ft | 294 kts | 124° |
| 2026-05-05 16:47 | 37.31182 | 30.65136 | 19299 ft | 289 kts | 131° |
| 2026-05-05 16:48 | 37.29713 | 30.66937 | 18697 ft | 281 kts | 153° |
| 2026-05-05 16:48 | 37.27970 | 30.67876 | 18248 ft | 272 kts | 168° |
| 2026-05-05 16:48 | 37.26168 | 30.68287 | 17758 ft | 268 kts | 179° |
| 2026-05-05 16:48 | 37.24333 | 30.68070 | 17221 ft | 265 kts | 196° |
| 2026-05-05 16:49 | 37.22633 | 30.67213 | 16747 ft | 263 kts | 209° |
| 2026-05-05 16:49 | 37.21158 | 30.65881 | 16232 ft | 263 kts | 221° |
| 2026-05-05 16:49 | 37.19902 | 30.64272 | 15770 ft | 261 kts | 225° |
| 2026-05-05 16:49 | 37.18676 | 30.62599 | 15266 ft | 260 kts | 225° |
| 2026-05-05 16:50 | 37.17470 | 30.60967 | 14801 ft | 258 kts | 225° |
| 2026-05-05 16:50 | 37.16255 | 30.59339 | 14322 ft | 257 kts | 225° |
| 2026-05-05 16:50 | 37.14948 | 30.57888 | 13832 ft | 254 kts | 211° |
| 2026-05-05 16:50 | 37.13334 | 30.57071 | 13330 ft | 252 kts | 188° |
| 2026-05-05 16:51 | 37.11603 | 30.56817 | 12902 ft | 248 kts | 194° |
| 2026-05-05 16:51 | 37.10080 | 30.55883 | 12356 ft | 250 kts | 221° |
| 2026-05-05 16:51 | 37.09109 | 30.54104 | 11912 ft | 251 kts | 250° |
| 2026-05-05 16:51 | 37.08970 | 30.51948 | 11471 ft | 254 kts | 280° |
| 2026-05-05 16:52 | 37.09734 | 30.50030 | 11449 ft | 251 kts | 310° |
| 2026-05-05 16:52 | 37.11215 | 30.48774 | 11492 ft | 273 kts | 339° |
| 2026-05-05 16:52 | 37.13134 | 30.48440 | 11493 ft | 281 kts | 2° |
| 2026-05-05 16:52 | 37.15073 | 30.48634 | 11487 ft | 280 kts | 5° |
| 2026-05-05 16:53 | 37.16994 | 30.48964 | 11465 ft | 279 kts | 16° |
| 2026-05-05 16:53 | 37.18718 | 30.50017 | 11239 ft | 280 kts | 42° |
| 2026-05-05 16:53 | 37.19995 | 30.51757 | 11005 ft | 273 kts | 54° |
| 2026-05-05 16:53 | 37.21120 | 30.53617 | 10764 ft | 270 kts | 58° |
| 2026-05-05 16:54 | 37.21965 | 30.55682 | 10450 ft | 265 kts | 73° |
| 2026-05-05 16:54 | 37.22546 | 30.57858 | 10059 ft | 264 kts | 75° |
| 2026-05-05 16:54 | 37.23104 | 30.60035 | 9592 ft | 263 kts | 75° |
| 2026-05-05 16:54 | 37.23651 | 30.62174 | 9179 ft | 260 kts | 75° |
| 2026-05-05 16:55 | 37.24205 | 30.64340 | 8743 ft | 259 kts | 75° |
| 2026-05-05 16:55 | 37.24746 | 30.66463 | 8317 ft | 257 kts | 75° |
| 2026-05-05 16:55 | 37.25285 | 30.68576 | 7939 ft | 253 kts | 75° |
| 2026-05-05 16:55 | 37.25793 | 30.70564 | 7788 ft | 240 kts | 75° |
| 2026-05-05 16:56 | 37.26299 | 30.72558 | 7436 ft | 237 kts | 78° |
| 2026-05-05 16:56 | 37.26488 | 30.74549 | 7075 ft | 231 kts | 94° |
| 2026-05-05 16:56 | 37.26454 | 30.76532 | 6867 ft | 225 kts | 95° |
| 2026-05-05 16:56 | 37.26407 | 30.78505 | 6433 ft | 227 kts | 95° |
| 2026-05-05 16:57 | 37.26288 | 30.80459 | 6057 ft | 224 kts | 107° |
| 2026-05-05 16:57 | 37.25589 | 30.82132 | 5649 ft | 216 kts | 139° |
| 2026-05-05 16:57 | 37.24383 | 30.83139 | 5378 ft | 206 kts | 157° |
| 2026-05-05 16:57 | 37.23096 | 30.83920 | 5017 ft | 206 kts | 155° |
| 2026-05-05 16:58 | 37.21825 | 30.84726 | 4668 ft | 205 kts | 155° |
| 2026-05-05 16:58 | 37.20570 | 30.85523 | 4396 ft | 200 kts | 155° |
| 2026-05-05 16:58 | 37.19346 | 30.86300 | 4078 ft | 198 kts | 155° |
| 2026-05-05 16:58 | 37.18131 | 30.87070 | 3990 ft | 193 kts | 157° |
| 2026-05-05 16:59 | 37.16373 | 30.87368 | 3986 ft | 197 kts | 196° |
| 2026-05-05 16:59 | 37.15579 | 30.86851 | 3991 ft | 197 kts | 219° |
| 2026-05-05 16:59 | 37.14809 | 30.85437 | 3861 ft | 198 kts | 243° |
| 2026-05-05 16:59 | 37.14280 | 30.83831 | 3482 ft | 200 kts | 245° |
| 2026-05-05 17:00 | 37.13623 | 30.82326 | 3128 ft | 197 kts | 224° |
| 2026-05-05 17:00 | 37.12480 | 30.81539 | 2980 ft | 186 kts | 187° |
| 2026-05-05 17:00 | 37.11217 | 30.81784 | 3027 ft | 188 kts | 165° |
| 2026-05-05 17:00 | 37.09952 | 30.81970 | 2994 ft | 180 kts | 184° |
| 2026-05-05 17:01 | 37.08734 | 30.81835 | 2979 ft | 173 kts | 186° |
| 2026-05-05 17:01 | 37.07517 | 30.81671 | 3002 ft | 176 kts | 187° |
| 2026-05-05 17:01 | 37.06323 | 30.81507 | 2975 ft | 171 kts | 187° |
| 2026-05-05 17:01 | 37.04736 | 30.81289 | 2791 ft | 173 kts | 187° |
| 2026-05-05 17:02 | 37.03941 | 30.81179 | 2629 ft | 170 kts | 187° |
| 2026-05-05 17:02 | 37.02790 | 30.81021 | 2424 ft | 167 kts | 187° |
| 2026-05-05 17:02 | 37.01660 | 30.80865 | 2186 ft | 159 kts | 187° |
| 2026-05-05 17:02 | 37.00596 | 30.80719 | 1986 ft | 151 kts | 187° |
| 2026-05-05 17:03 | 36.99545 | 30.80574 | 1784 ft | 148 kts | 187° |
| 2026-05-05 17:03 | 36.98546 | 30.80437 | 1592 ft | 146 kts | 187° |
| 2026-05-05 17:03 | 36.97542 | 30.80299 | 1384 ft | 146 kts | 187° |
| 2026-05-05 17:03 | 36.96542 | 30.80162 | 1185 ft | 145 kts | 187° |
| 2026-05-05 17:04 | 36.95537 | 30.80024 | 1021 ft | 140 kts | 186° |
| 2026-05-05 17:04 | 36.94577 | 30.79893 | 799 ft | 141 kts | 187° |
| 2026-05-05 17:04 | 36.93614 | 30.79760 | 622 ft | 139 kts | 187° |
| 2026-05-05 17:04 | 36.92642 | 30.79630 | 414 ft | 139 kts | 186° |
| 2026-05-05 17:05 | 36.91693 | 30.79497 | 240 ft | 136 kts | 187° |
| 2026-05-05 17:05 | 36.90773 | 30.79370 | 174 ft | 121 kts | 186° |
| 2026-05-05 17:05 | 36.90083 | 30.79274 | 177 ft | 83 kts | 186° |
| 2026-05-05 17:05 | 36.89688 | 30.79220 | 177 ft | 27 kts | 186° |
| 2026-05-05 17:06 | 36.89587 | 30.79234 | 177 ft | 13 kts | 156° |
| 2026-05-05 17:06 | 36.89531 | 30.79268 | 177 ft | 5 kts | 154° |
| 2026-05-05 17:06 | 36.89503 | 30.79284 | 177 ft | 1 kts | 156° |
| 2026-05-05 17:06 | 36.89496 | 30.79288 | 177 ft | 0 kts | 156° |
| 2026-05-05 17:07 | 36.89481 | 30.79296 | 177 ft | 1 kts | 156° |
| 2026-05-05 17:07 | 36.89473 | 30.79301 | 177 ft | 0 kts | 156° |
| 2026-05-05 17:07 | 36.89471 | 30.79302 | 177 ft | 0 kts | 156° |
| 2026-05-05 17:07 | 36.89454 | 30.79311 | 177 ft | 5 kts | 156° |
| 2026-05-05 17:08 | 36.89412 | 30.79334 | 177 ft | 6 kts | 156° |
| 2026-05-05 17:08 | 36.89389 | 30.79353 | 177 ft | 2 kts | 128° |
| 2026-05-05 17:08 | 36.89384 | 30.79375 | 177 ft | 3 kts | 85° |
| 2026-05-05 17:08 | 36.89397 | 30.79396 | 177 ft | 3 kts | 27° |
| 2026-05-05 17:09 | 36.89421 | 30.79405 | 177 ft | 3 kts | 14° |
| 2026-05-05 17:09 | 36.89447 | 30.79411 | 177 ft | 3 kts | 8° |
| 2026-05-05 17:09 | 36.89480 | 30.79415 | 177 ft | 6 kts | 6° |
| 2026-05-05 17:09 | 36.89544 | 30.79425 | 177 ft | 11 kts | 6° |
| 2026-05-05 17:10 | 36.89639 | 30.79438 | 177 ft | 15 kts | 7° |
| 2026-05-05 17:10 | 36.89682 | 30.79444 | 177 ft | 3 kts | 6° |
| 2026-05-05 17:10 | 36.89708 | 30.79448 | 177 ft | 6 kts | 6° |
| 2026-05-05 17:10 | 36.89800 | 30.79460 | 177 ft | 13 kts | 6° |
| 2026-05-05 17:11 | 36.89867 | 30.79468 | 177 ft | 15 kts | 6° |
| 2026-05-05 17:11 | 36.89983 | 30.79483 | 177 ft | 17 kts | 6° |
| 2026-05-05 17:11 | 36.90099 | 30.79498 | 177 ft | 16 kts | 6° |
| 2026-05-05 17:11 | 36.90214 | 30.79513 | 177 ft | 16 kts | 6° |
| 2026-05-05 17:12 | 36.90324 | 30.79529 | 177 ft | 15 kts | 6° |
| 2026-05-05 17:12 | 36.90436 | 30.79543 | 177 ft | 17 kts | 7° |
| 2026-05-05 17:12 | 36.90545 | 30.79558 | 176 ft | 15 kts | 6° |
| 2026-05-05 17:12 | 36.90653 | 30.79575 | 174 ft | 15 kts | 9° |
| 2026-05-05 17:13 | 36.90763 | 30.79592 | 171 ft | 15 kts | 5° |
| 2026-05-05 17:13 | 36.90878 | 30.79604 | 169 ft | 17 kts | 5° |
| 2026-05-05 17:13 | 36.90969 | 30.79615 | 167 ft | 9 kts | 6° |
| 2026-05-05 17:13 | 36.91056 | 30.79627 | 166 ft | 15 kts | 6° |
| 2026-05-05 17:14 | 36.91185 | 30.79658 | 164 ft | 9 kts | 30° |
| 2026-05-05 17:14 | 36.91211 | 30.79694 | 164 ft | 7 kts | 62° |
| 2026-05-05 17:14 | 36.91210 | 30.79754 | 164 ft | 7 kts | 101° |
| 2026-05-05 17:14 | 36.91201 | 30.79814 | 164 ft | 6 kts | 101° |
| 2026-05-05 17:15 | 36.91197 | 30.79845 | 164 ft | 2 kts | 100° |
| 2026-05-05 17:15 | 36.91191 | 30.79867 | 165 ft | 2 kts | 123° |
| 2026-05-05 17:15 | 36.91166 | 30.79882 | 165 ft | 5 kts | 171° |
| 2026-05-05 17:15 | 36.91110 | 30.79875 | 165 ft | 8 kts | 187° |
| 2026-05-05 17:16 | 36.91067 | 30.79868 | 166 ft | 8 kts | 186° |
| 2026-05-05 17:16 | 36.91042 | 30.79865 | 166 ft | 2 kts | 186° |
| 2026-05-05 17:16 | 36.91009 | 30.79860 | 167 ft | 6 kts | 186° |
| 2026-05-05 17:16 | 36.90991 | 30.79858 | 167 ft | 2 kts | 186° |
| 2026-05-05 17:17 | 36.90965 | 30.79855 | 168 ft | 5 kts | 186° |
| 2026-05-05 17:17 | 36.90947 | 30.79852 | 168 ft | 1 kts | 186° |
| 2026-05-05 17:17 | 36.90926 | 30.79855 | 169 ft | 3 kts | 155° |
| 2026-05-05 17:17 | 36.90917 | 30.79876 | 169 ft | 2 kts | 95° |
| 2026-05-05 17:18 | 36.90916 | 30.79886 | 170 ft | 1 kts | 95° |
| 2026-05-05 17:18 | 36.90915 | 30.79900 | 170 ft | 1 kts | 95° |
| 2026-05-05 17:18 | 36.90915 | 30.79909 | 170 ft | 0 kts | 95° |
| 2026-05-05 17:18 | 36.90913 | 30.79925 | 171 ft | 2 kts | 98° |
| 2026-05-05 17:19 | 36.90912 | 30.79937 | 171 ft | 0 kts | 98° |
| 2026-05-05 17:19 | 36.90911 | 30.79941 | 171 ft | 0 kts | 98° |
| 2026-05-05 17:19 | 36.90911 | 30.79943 | 171 ft | 0 kts | 98° |